Chickasha, OK (73018)

7:45 PM CDT on September 02, 2014 (GMT -0500)
Oakmont | Change Station
CLOSE
Current Station
Personal Weather Station
Location: Blanchard, OK
Elevation: 1355 ft
Nearby Weather Stations

Elev 1355 ft 35.13 °N, 97.69 °W | Updated 14 seconds ago

Clear
Clear
86.5 °F
Feels Like 90 °F
N
3.0
Wind Variable Wind from South
Gusts 7.0 mph

Today
High -- | Low -- °F
--% Chance of Precip.
Yesterday
High -- | Low -- °F
Precip. -- in
7:05 AM 7:57 PM
First Quarter, 56% visible
Pressure 29.89 in
Visibility 10.0 miles
Clouds Clear
Heat Index 90 °F
Dew Point 67 °F
Humidity 53%
Rainfall -999.00 in
Snow Depth Not available.
UV 0 out of 12
Pollen 10.50 out of 12
Ozone Good
PM2.5 Good
Flu Activity Not available.
METAR KRQO 030035Z AUTO 14013G17KT 10SM CLR 30/19 A2989 RMK AO2

More Conditions Fewer Conditions

Pressure 29.89 in
Visibility 10.0 miles
Clouds Clear
Heat Index 90 °F
Dew Point 67 °F
Humidity 53%
Rainfall -999.00 in
Snow Depth Not available.
UV 0 out of 12
Pollen 10.50 out of 12
Ozone Good
PM2.5 Good
Flu Activity Not available.
METAR KRQO 030035Z AUTO 14013G17KT 10SM CLR 30/19 A2989 RMK AO2

More Conditions Fewer Conditions

10-Day Weather Forecast

Almanac

Astronomy

Sep. 02, 2014 Rise Set
Actual Time 7:05 AM CDT 7:57 PM CDT
Civil Twilight 6:39 AM CDT 8:22 PM CDT
Nautical Twilight 6:08 AM CDT 8:53 PM CDT
Astronomical Twilight 5:37 AM CDT 9:24 PM CDT
Moon 2:34 PM CDT (9/2) 12:16 AM CDT (9/2)
Length of Visible Light 13h 43m
Length of Day
12h 51m
Tomorrow will be 2m 7s shorter.
First Quarter, 56% of the Moon is Illuminated
Today
First Quarter
Sep 8
Full
Sep 15
Last Quarter
Sep 24
New
Oct 1
First Quarter

Today's Extremes

State Highs State Lows

Community

WunderPhotos

Upload Photos

1,749,808 photos uploaded!

Nearby

Air Quality

  Air Quality AQ Index Pollutant
Yesterday Good
OZONE
Yesterday Good
PM2.5
Current Good
PM2.5
Current Good
OZONE
Tuesday Moderate
OZONE
Tuesday Good
PM2.5
Wednesday Moderate
OZONE
Wednesday Good
PM2.5

Snow Depth

Station Depth Elevation
No new snow has been reported.

Earthquake Activity

City Distance Mag. Time & Date
Helena, Oklahoma 102 miles 3.2 3:05 AM CDT
2014-09-02
Medford, Oklahoma 115 miles 3.3 11:58 PM CDT
2014-09-01
Perry, Oklahoma 85 miles 3.1 6:46 AM CDT
2014-09-01
Jones, Oklahoma 54 miles 3.1 1:49 PM CDT
2014-08-31
Minimum magnitude displayed is 2.5.

Coastal Water Temperatures

Place Temperature
No Stations Reporting

Nearby Weather Stations